This is the latest recevied weather packets stored in our database for station/object DL1ONI-13. If no packets are shown the sender has not sent any weather packets the latest 10 day(s).
| Time | Temp. | Humidity | Pressure | Rain* | Wind** | Luminosity | Snow |
|---|---|---|---|---|---|---|---|
| 1777116620 | 18.89° C | 28% | 1021.7 hPa | 0 mm | - | - | - |
| 1777114821 | 18.89° C | 31% | 1021.9 hPa | 0 mm | - | - | - |
| 1777111825 | 17.22° C | 34% | 1022.4 hPa | 0 mm | - | - | - |
| 1777111246 | 16.67° C | 35% | 1022.4 hPa | 0 mm | - | - | - |
| 1777108216 | 15° C | 40% | 1022.5 hPa | 0 mm | - | - | - |
| 1777106416 | 13.89° C | 41% | 1022.6 hPa | 0 mm | - | - | - |
| 1777105816 | 13.89° C | 42% | 1022.5 hPa | 0 mm | - | - | - |
| 1777103426 | 12.22° C | 45% | 1022.8 hPa | 0 mm | - | - | - |
| 1777101617 | 11.11° C | 45% | 1022.8 hPa | 0 mm | - | - | - |
| 1777098617 | 8.89° C | 46% | 1020.8 hPa | 0 mm | - | - | - |
| 1777098017 | 8.89° C | 47% | 1020.9 hPa | 0 mm | - | - | - |
| 1777096820 | 7.78° C | 47% | 1021 hPa | 0 mm | - | - | - |
| 1777093822 | 5.56° C | 53% | 1020.8 hPa | 0 mm | - | - | - |
| 1777092044 | 3.89° C | 52% | 1020.8 hPa | 0 mm | - | - | - |
| 1777089017 | 3.33° C | 50% | 1020.6 hPa | 0 mm | - | - | - |
| 1777087818 | 3.89° C | 49% | 1021.7 hPa | 0 mm | - | - | - |
| 1777086018 | 3.89° C | 48% | 1021.6 hPa | 0 mm | - | - | - |
| 1777082419 | 5° C | 46% | 1022 hPa | 0 mm | - | - | - |
| 1777080020 | 5° C | 44% | 1021.8 hPa | 0 mm | - | - | - |
| 1777075223 | 6.11° C | 41% | 1022.1 hPa | 0 mm | - | - | - |
| 1777074024 | 6.67° C | 41% | 1022.1 hPa | 0 mm | - | - | - |
| 1777071016 | 7.22° C | 40% | 1022.3 hPa | 0 mm | - | - | - |
| 1777069818 | 7.78° C | 39% | 1022.5 hPa | 0 mm | - | - | - |
| 1777068618 | 8.33° C | 37% | 1022.4 hPa | 0 mm | - | - | - |
| 1777067420 | 8.89° C | 35% | 1022.6 hPa | 0 mm | - | - | - |
* Rain latest hour (hover to see other rain measurements)
** Current wind speed in m/s (hover to see current wind gust speed)